createdAt,value
2023-01-06T00:01:20.792Z,99.51
2023-01-06T00:07:22.716Z,99.63
2023-01-06T00:13:24.708Z,98.95
2023-01-06T00:19:26.640Z,100.00
2023-01-06T00:25:28.529Z,100.00
2023-01-06T00:31:30.797Z,100.00
2023-01-06T00:37:32.946Z,100.00
2023-01-06T00:43:34.825Z,100.00
2023-01-06T00:49:37.312Z,100.00
2023-01-06T00:55:39.203Z,100.00
2023-01-06T01:01:42.659Z,100.00
2023-01-06T01:07:44.661Z,100.00
2023-01-06T01:13:46.524Z,100.00
2023-01-06T01:19:50.898Z,100.00
2023-01-06T01:25:57.163Z,100.00
2023-01-06T01:31:59.477Z,100.00
2023-01-06T01:38:01.361Z,100.00
2023-01-06T01:44:54.061Z,100.00
2023-01-06T01:50:58.419Z,100.00
2023-01-06T01:57:09.991Z,100.00
2023-01-06T02:03:14.336Z,100.00
2023-01-06T02:09:33.103Z,100.00
2023-01-06T02:15:35.077Z,100.00
2023-01-06T02:22:30.671Z,100.00
2023-01-06T02:28:55.400Z,100.00
2023-01-06T02:35:32.717Z,100.00
2023-01-06T02:42:13.458Z,100.00
2023-01-06T02:48:42.195Z,100.00
2023-01-06T02:55:28.872Z,100.00
2023-01-06T03:01:40.711Z,100.00
2023-01-06T03:07:45.952Z,100.00
2023-01-06T03:13:58.175Z,100.00
2023-01-06T03:20:00.351Z,100.00
2023-01-06T03:26:03.555Z,100.00
2023-01-06T03:32:36.432Z,100.00
2023-01-06T03:39:02.303Z,100.00
2023-01-06T03:45:14.720Z,100.00
2023-01-06T03:51:40.479Z,100.00
2023-01-06T03:57:51.093Z,100.00
2023-01-06T04:03:54.666Z,100.00
2023-01-06T04:09:56.671Z,100.00
2023-01-06T04:15:58.595Z,100.00
2023-01-06T04:22:00.602Z,100.00
2023-01-06T04:28:02.513Z,100.00
2023-01-06T04:34:04.453Z,100.00
2023-01-06T04:40:07.797Z,100.00
2023-01-06T04:46:09.797Z,100.00
2023-01-06T04:52:11.771Z,100.00
2023-01-06T04:58:13.668Z,100.00
2023-01-06T05:04:15.563Z,100.00
2023-01-06T05:10:17.564Z,100.00
2023-01-06T05:16:32.081Z,100.00
2023-01-06T05:22:34.021Z,100.00
2023-01-06T05:28:35.893Z,100.00
2023-01-06T05:34:37.764Z,100.00
2023-01-06T05:40:39.637Z,100.00
2023-01-06T05:46:41.563Z,100.00
2023-01-06T05:52:43.482Z,100.00
2023-01-06T05:58:51.877Z,100.00
2023-01-06T06:04:53.784Z,100.00
2023-01-06T06:10:55.713Z,100.00
2023-01-06T06:16:57.730Z,100.00
2023-01-06T06:22:59.664Z,100.00
2023-01-06T06:29:01.641Z,100.00
2023-01-06T06:35:03.771Z,100.00
2023-01-06T06:41:05.842Z,98.31
2023-01-06T06:47:08.289Z,96.58
2023-01-06T06:53:10.214Z,98.27
2023-01-06T06:59:12.112Z,98.74
2023-01-06T07:05:14.073Z,99.13
2023-01-06T07:11:16.043Z,98.63
2023-01-06T07:17:17.911Z,98.00
2023-01-06T07:23:20.922Z,97.28
2023-01-06T07:29:22.820Z,96.88
2023-01-06T07:35:24.710Z,93.82
2023-01-06T07:41:26.610Z,94.07
2023-01-06T07:47:28.491Z,90.31
2023-01-06T07:53:30.516Z,90.96
2023-01-06T07:59:32.406Z,90.72
2023-01-06T08:05:44.061Z,90.31
2023-01-06T08:11:45.975Z,89.24
2023-01-06T08:17:47.853Z,89.10
2023-01-06T08:23:49.755Z,90.35
2023-01-06T08:29:54.751Z,88.50
2023-01-06T08:36:01.763Z,88.66
2023-01-06T08:42:03.780Z,89.78
2023-01-06T08:48:05.872Z,89.12
2023-01-06T08:54:07.806Z,89.04
2023-01-06T09:00:10.594Z,89.43
2023-01-06T09:06:13.068Z,88.91
2023-01-06T09:12:15.205Z,88.75
2023-01-06T09:18:17.219Z,88.87
2023-01-06T09:24:19.382Z,88.69
2023-01-06T09:30:21.320Z,88.29
2023-01-06T09:36:23.368Z,89.60
2023-01-06T09:42:55.918Z,88.54
2023-01-06T09:49:03.559Z,88.57
2023-01-06T09:55:12.325Z,87.71
2023-01-06T10:01:20.133Z,85.32
2023-01-06T10:07:40.992Z,85.18
2023-01-06T10:14:02.575Z,85.19
2023-01-06T10:20:37.681Z,85.41
2023-01-06T10:26:56.689Z,87.80
2023-01-06T10:32:59.014Z,88.98
2023-01-06T10:39:03.418Z,90.21
2023-01-06T10:45:07.633Z,89.08
2023-01-06T10:51:41.035Z,89.26
2023-01-06T10:57:43.157Z,90.06
2023-01-06T11:03:45.621Z,91.27
2023-01-06T11:09:47.693Z,91.93
2023-01-06T11:15:50.198Z,92.21
2023-01-06T11:21:52.163Z,91.57
2023-01-06T11:28:20.916Z,92.90
2023-01-06T11:34:28.960Z,92.29
2023-01-06T11:40:34.323Z,91.21
2023-01-06T11:46:39.801Z,90.30
2023-01-06T11:52:41.730Z,91.28
2023-01-06T11:59:10.264Z,93.80
2023-01-06T12:05:32.307Z,94.60
2023-01-06T12:11:42.585Z,94.59
2023-01-06T12:17:58.261Z,94.79
2023-01-06T12:24:04.966Z,96.01
2023-01-06T12:30:26.233Z,100.00
2023-01-06T12:36:46.331Z,100.00
2023-01-06T12:43:18.698Z,100.00
2023-01-06T12:49:49.707Z,100.00
2023-01-06T12:56:20.985Z,100.00
2023-01-06T13:03:05.776Z,100.00
2023-01-06T13:09:44.400Z,100.00
2023-01-06T13:15:46.849Z,100.00
2023-01-06T13:21:54.167Z,100.00
2023-01-06T13:28:11.058Z,100.00
2023-01-06T13:35:09.014Z,100.00
2023-01-06T13:41:22.830Z,99.98
2023-01-06T13:47:25.706Z,100.00
2023-01-06T13:53:27.853Z,98.62
2023-01-06T13:59:29.735Z,97.44
2023-01-06T14:05:31.483Z,96.52
2023-01-06T14:11:37.777Z,95.69
2023-01-06T14:17:45.679Z,95.59
2023-01-06T14:24:07.797Z,93.21
2023-01-06T14:30:30.726Z,93.39
2023-01-06T14:36:34.536Z,94.93
2023-01-06T14:42:45.402Z,95.49
2023-01-06T14:49:01.023Z,94.77
2023-01-06T14:55:09.710Z,95.91
2023-01-06T15:01:29.870Z,96.56
2023-01-06T15:07:31.882Z,96.64
2023-01-06T15:13:34.203Z,98.27
2023-01-06T15:19:36.545Z,99.05
2023-01-06T15:25:38.775Z,99.92
2023-01-06T15:31:41.222Z,100.00
2023-01-06T15:37:45.481Z,99.21
2023-01-06T15:43:48.387Z,100.00
2023-01-06T15:49:56.963Z,100.00
2023-01-06T15:56:00.876Z,100.00
2023-01-06T16:02:03.842Z,100.00
2023-01-06T16:08:29.053Z,100.00
2023-01-06T16:14:38.948Z,100.00
2023-01-06T16:20:41.207Z,100.00
2023-01-06T16:26:48.088Z,100.00
2023-01-06T16:32:54.429Z,100.00
2023-01-06T16:38:56.316Z,100.00
2023-01-06T16:45:06.426Z,100.00
2023-01-06T16:51:18.104Z,100.00
2023-01-06T16:57:22.457Z,100.00
2023-01-06T17:03:30.645Z,100.00
2023-01-06T17:09:34.519Z,100.00
2023-01-06T17:15:36.425Z,100.00
2023-01-06T17:21:39.751Z,100.00
2023-01-06T17:27:45.453Z,100.00
2023-01-06T17:33:47.501Z,100.00
2023-01-06T17:39:50.260Z,100.00
2023-01-06T17:45:52.326Z,99.51
2023-01-06T17:51:54.821Z,99.67
2023-01-06T17:57:59.082Z,98.31
2023-01-06T18:04:06.465Z,99.17
2023-01-06T18:10:16.147Z,100.00
2023-01-06T18:16:33.244Z,100.00
2023-01-06T18:22:36.083Z,100.00
2023-01-06T18:28:38.018Z,100.00
2023-01-06T18:34:43.100Z,100.00
2023-01-06T18:40:45.705Z,100.00
2023-01-06T18:46:47.655Z,100.00
2023-01-06T18:52:51.753Z,100.00
2023-01-06T18:58:57.382Z,100.00
2023-01-06T19:05:00.458Z,100.00
2023-01-06T19:11:11.519Z,100.00
2023-01-06T19:17:23.143Z,100.00
2023-01-06T19:23:28.247Z,100.00
2023-01-06T19:29:35.108Z,100.00
2023-01-06T19:35:37.039Z,100.00
2023-01-06T19:41:38.927Z,100.00
2023-01-06T19:47:42.043Z,100.00
2023-01-06T19:53:48.231Z,100.00
2023-01-06T19:59:50.127Z,100.00
2023-01-06T20:05:52.077Z,100.00
2023-01-06T20:11:54.087Z,100.00
2023-01-06T20:17:55.953Z,100.00
2023-01-06T20:23:58.518Z,100.00
2023-01-06T20:30:00.507Z,100.00
2023-01-06T20:36:02.376Z,100.00
2023-01-06T20:42:05.563Z,100.00
2023-01-06T20:48:07.574Z,100.00
2023-01-06T20:54:09.518Z,100.00
2023-01-06T21:00:13.148Z,100.00
2023-01-06T21:06:16.120Z,100.00
2023-01-06T21:12:18.114Z,100.00
2023-01-06T21:18:20.011Z,100.00
2023-01-06T21:24:22.180Z,100.00
2023-01-06T21:30:24.516Z,100.00
2023-01-06T21:36:26.742Z,100.00
2023-01-06T21:42:47.258Z,100.00
2023-01-06T21:48:49.161Z,100.00
2023-01-06T21:54:51.069Z,100.00
2023-01-06T22:00:53.086Z,100.00
2023-01-06T22:06:59.447Z,100.00
2023-01-06T22:13:02.994Z,100.00
2023-01-06T22:19:06.019Z,100.00
2023-01-06T22:25:08.621Z,100.00
2023-01-06T22:31:10.605Z,100.00
2023-01-06T22:37:12.561Z,100.00
2023-01-06T22:43:14.593Z,100.00
2023-01-06T22:49:16.540Z,100.00
2023-01-06T22:55:18.431Z,100.00
2023-01-06T23:01:20.525Z,100.00
2023-01-06T23:07:22.549Z,100.00
2023-01-06T23:13:24.503Z,100.00
2023-01-06T23:19:26.560Z,100.00
2023-01-06T23:25:28.461Z,100.00
2023-01-06T23:31:35.778Z,100.00
2023-01-06T23:37:37.709Z,100.00
2023-01-06T23:43:42.643Z,100.00
2023-01-06T23:49:45.396Z,100.00
2023-01-06T23:56:03.119Z,100.00
